ROMMA est une association bénévole à but non lucratif. Votre soutien est indispensable : ADHERER à ROMMA ou FAIRE un DON

Taninges - (74, Haute-Savoie)

Vallée du Giffre (635 m)   Longitude: 06° 35' 38" E   Latitude: 46° 06' 21" N Station romma n°98
 

Détail journalier du     <<     >>

Température Precipitation Humidité Pression Vent Dir Rafale Dir. rafale Ensol.
Heure (°C) (mm) (%) (hPa) (km/h) (km/h) (min)
01:00 14.908810131SE5E0
02:00 15.408410143E10ONO0
03:00 15.708110143ENE8O0
04:00 15.508310132NE8SSE0
05:00 14.008710131SSO5SSO0
06:00 13.108910132SSO8S0
07:00 13.609210132SO8SO5
08:00 14.609110141NO6S15
09:00 17.407910141S5S15
10:00 19.606810142S5SSO15
11:00 21.506110142OSO6OSO5
12:00 23.305810132SSO8O0
13:00 24.405810132O8ENE0
14:00 27.704710126SO19OSO50
15:00 29.104710117SO15SSO55
16:00 29.804010116SO16SO60
17:00 30.304110105OSO16OSO60
18:00 30.203710108O21O60
19:00 29.204310108O23ONO60
20:00 26.105110114O18NNE20
21:00 23.506710113NE16ENE0
22:00 21.107710121ENE6ESE0
23:00 18.908410121ESE5ESE0
minuit 18.708210121SSE6S0

Graphique du 05-08-2019

 

Serveur OMMA